sensor_id;sensor_type;location;lat;lon;timestamp;P1;durP1;ratioP1;P2;durP2;ratioP2
34204;SDS011;20471;49.680;20.074;2023-03-31T00:01:07;18.60;;;11.40;;
34204;SDS011;20471;49.680;20.074;2023-03-31T00:03:36;22.60;;;13.20;;
34204;SDS011;20471;49.680;20.074;2023-03-31T00:06:09;19.80;;;13.30;;
34204;SDS011;20471;49.680;20.074;2023-03-31T00:08:43;19.30;;;13.10;;
34204;SDS011;20471;49.680;20.074;2023-03-31T00:11:12;17.60;;;12.70;;
34204;SDS011;20471;49.680;20.074;2023-03-31T00:13:40;17.70;;;12.70;;
34204;SDS011;20471;49.680;20.074;2023-03-31T00:16:09;20.30;;;13.70;;
34204;SDS011;20471;49.680;20.074;2023-03-31T00:18:37;19.30;;;13.10;;
34204;SDS011;20471;49.680;20.074;2023-03-31T00:21:10;21.50;;;12.50;;
34204;SDS011;20471;49.680;20.074;2023-03-31T00:23:53;17.80;;;12.50;;
34204;SDS011;20471;49.680;20.074;2023-03-31T00:26:23;18.60;;;12.90;;
34204;SDS011;20471;49.680;20.074;2023-03-31T00:28:53;22.60;;;13.70;;
34204;SDS011;20471;49.680;20.074;2023-03-31T00:31:21;24.20;;;15.00;;
34204;SDS011;20471;49.680;20.074;2023-03-31T00:33:50;26.50;;;15.40;;
34204;SDS011;20471;49.680;20.074;2023-03-31T00:36:18;25.30;;;15.10;;
34204;SDS011;20471;49.680;20.074;2023-03-31T00:38:53;25.40;;;15.60;;
34204;SDS011;20471;49.680;20.074;2023-03-31T00:41:25;25.40;;;17.00;;
34204;SDS011;20471;49.680;20.074;2023-03-31T00:49:34;21.20;;;14.80;;
34204;SDS011;20471;49.680;20.074;2023-03-31T00:52:15;17.10;;;12.40;;
34204;SDS011;20471;49.680;20.074;2023-03-31T00:54:44;21.70;;;12.90;;
34204;SDS011;20471;49.680;20.074;2023-03-31T00:57:14;16.10;;;12.00;;
34204;SDS011;20471;49.680;20.074;2023-03-31T00:59:44;14.80;;;11.50;;
34204;SDS011;20471;49.680;20.074;2023-03-31T01:02:16;13.60;;;11.30;;
34204;SDS011;20471;49.680;20.074;2023-03-31T01:04:47;18.30;;;10.70;;
34204;SDS011;20471;49.680;20.074;2023-03-31T01:09:59;15.30;;;12.00;;
34204;SDS011;20471;49.680;20.074;2023-03-31T01:12:30;15.90;;;11.30;;
34204;SDS011;20471;49.680;20.074;2023-03-31T01:15:00;14.10;;;11.20;;
34204;SDS011;20471;49.680;20.074;2023-03-31T01:17:30;16.30;;;11.00;;
34204;SDS011;20471;49.680;20.074;2023-03-31T01:32:00;15.60;;;9.90;;
34204;SDS011;20471;49.680;20.074;2023-03-31T01:50:02;13.60;;;9.70;;
34204;SDS011;20471;49.680;20.074;2023-03-31T01:55:28;14.80;;;11.10;;
34204;SDS011;20471;49.680;20.074;2023-03-31T01:58:01;14.20;;;10.70;;
34204;SDS011;20471;49.680;20.074;2023-03-31T02:00:57;16.60;;;11.50;;
34204;SDS011;20471;49.680;20.074;2023-03-31T02:03:33;13.60;;;10.60;;
34204;SDS011;20471;49.680;20.074;2023-03-31T02:06:09;14.50;;;10.40;;
34204;SDS011;20471;49.680;20.074;2023-03-31T02:08:45;13.20;;;10.80;;
34204;SDS011;20471;49.680;20.074;2023-03-31T02:11:19;14.00;;;10.70;;
34204;SDS011;20471;49.680;20.074;2023-03-31T02:13:48;17.60;;;11.30;;
34204;SDS011;20471;49.680;20.074;2023-03-31T02:16:22;15.60;;;10.00;;
34204;SDS011;20471;49.680;20.074;2023-03-31T02:18:53;14.20;;;10.00;;
34204;SDS011;20471;49.680;20.074;2023-03-31T02:21:28;15.40;;;10.20;;
34204;SDS011;20471;49.680;20.074;2023-03-31T02:24:01;13.90;;;9.10;;
34204;SDS011;20471;49.680;20.074;2023-03-31T02:26:35;12.40;;;10.00;;
34204;SDS011;20471;49.680;20.074;2023-03-31T02:29:07;15.80;;;9.60;;
34204;SDS011;20471;49.680;20.074;2023-03-31T02:34:29;14.60;;;9.40;;
34204;SDS011;20471;49.680;20.074;2023-03-31T02:36:57;11.10;;;8.90;;
34204;SDS011;20471;49.680;20.074;2023-03-31T02:39:27;11.60;;;8.90;;
34204;SDS011;20471;49.680;20.074;2023-03-31T02:42:00;12.90;;;9.20;;
34204;SDS011;20471;49.680;20.074;2023-03-31T02:44:33;12.40;;;9.00;;
34204;SDS011;20471;49.680;20.074;2023-03-31T02:47:12;9.90;;;8.40;;
34204;SDS011;20471;49.680;20.074;2023-03-31T02:49:44;13.40;;;8.80;;
34204;SDS011;20471;49.680;20.074;2023-03-31T02:55:29;10.80;;;8.60;;
34204;SDS011;20471;49.680;20.074;2023-03-31T03:03:45;12.60;;;9.70;;
34204;SDS011;20471;49.680;20.074;2023-03-31T03:14:21;11.70;;;7.50;;
34204;SDS011;20471;49.680;20.074;2023-03-31T03:16:58;10.70;;;8.80;;
34204;SDS011;20471;49.680;20.074;2023-03-31T03:19:34;15.70;;;9.30;;
34204;SDS011;20471;49.680;20.074;2023-03-31T03:22:02;11.80;;;8.50;;
34204;SDS011;20471;49.680;20.074;2023-03-31T03:24:30;11.00;;;8.50;;
34204;SDS011;20471;49.680;20.074;2023-03-31T03:27:00;11.80;;;8.80;;
34204;SDS011;20471;49.680;20.074;2023-03-31T03:29:28;12.50;;;9.00;;
34204;SDS011;20471;49.680;20.074;2023-03-31T03:31:56;12.90;;;8.80;;
34204;SDS011;20471;49.680;20.074;2023-03-31T03:34:24;11.20;;;8.80;;
34204;SDS011;20471;49.680;20.074;2023-03-31T03:36:52;13.30;;;9.10;;
34204;SDS011;20471;49.680;20.074;2023-03-31T03:39:20;16.50;;;8.80;;
34204;SDS011;20471;49.680;20.074;2023-03-31T03:41:48;11.40;;;8.40;;
34204;SDS011;20471;49.680;20.074;2023-03-31T03:44:16;11.50;;;8.30;;
34204;SDS011;20471;49.680;20.074;2023-03-31T03:46:44;11.60;;;7.60;;
34204;SDS011;20471;49.680;20.074;2023-03-31T03:49:12;9.40;;;7.80;;
34204;SDS011;20471;49.680;20.074;2023-03-31T03:51:40;11.90;;;8.50;;
34204;SDS011;20471;49.680;20.074;2023-03-31T03:54:09;12.00;;;8.60;;
34204;SDS011;20471;49.680;20.074;2023-03-31T03:56:37;12.20;;;8.10;;
34204;SDS011;20471;49.680;20.074;2023-03-31T03:59:05;15.90;;;9.00;;
34204;SDS011;20471;49.680;20.074;2023-03-31T04:01:33;12.10;;;8.20;;
34204;SDS011;20471;49.680;20.074;2023-03-31T04:04:02;12.70;;;8.00;;
34204;SDS011;20471;49.680;20.074;2023-03-31T04:06:31;10.40;;;6.70;;
34204;SDS011;20471;49.680;20.074;2023-03-31T04:08:59;9.60;;;6.90;;
34204;SDS011;20471;49.680;20.074;2023-03-31T04:11:28;9.70;;;6.80;;
34204;SDS011;20471;49.680;20.074;2023-03-31T04:13:56;11.70;;;8.40;;
34204;SDS011;20471;49.680;20.074;2023-03-31T04:16:24;10.50;;;7.20;;
34204;SDS011;20471;49.680;20.074;2023-03-31T04:18:53;11.50;;;7.90;;
34204;SDS011;20471;49.680;20.074;2023-03-31T04:21:24;10.20;;;7.90;;
34204;SDS011;20471;49.680;20.074;2023-03-31T04:23:53;10.90;;;7.20;;
34204;SDS011;20471;49.680;20.074;2023-03-31T04:26:28;11.60;;;7.50;;
34204;SDS011;20471;49.680;20.074;2023-03-31T04:29:05;11.20;;;6.70;;
34204;SDS011;20471;49.680;20.074;2023-03-31T04:31:33;10.60;;;7.60;;
34204;SDS011;20471;49.680;20.074;2023-03-31T04:34:04;9.80;;;7.00;;
34204;SDS011;20471;49.680;20.074;2023-03-31T04:36:45;10.40;;;6.80;;
34204;SDS011;20471;49.680;20.074;2023-03-31T04:39:15;10.00;;;7.10;;
34204;SDS011;20471;49.680;20.074;2023-03-31T04:41:49;9.40;;;6.80;;
34204;SDS011;20471;49.680;20.074;2023-03-31T04:44:17;8.80;;;7.00;;
34204;SDS011;20471;49.680;20.074;2023-03-31T04:46:45;7.80;;;6.60;;
34204;SDS011;20471;49.680;20.074;2023-03-31T04:49:13;10.10;;;6.90;;
34204;SDS011;20471;49.680;20.074;2023-03-31T04:51:42;9.00;;;6.30;;
34204;SDS011;20471;49.680;20.074;2023-03-31T04:54:10;10.10;;;6.90;;
34204;SDS011;20471;49.680;20.074;2023-03-31T04:56:38;11.00;;;7.30;;
34204;SDS011;20471;49.680;20.074;2023-03-31T04:59:06;11.80;;;7.60;;
34204;SDS011;20471;49.680;20.074;2023-03-31T05:01:35;13.60;;;9.60;;
34204;SDS011;20471;49.680;20.074;2023-03-31T05:04:03;14.70;;;12.40;;
34204;SDS011;20471;49.680;20.074;2023-03-31T05:06:32;15.40;;;12.60;;
34204;SDS011;20471;49.680;20.074;2023-03-31T05:09:00;18.70;;;16.30;;
34204;SDS011;20471;49.680;20.074;2023-03-31T05:11:28;13.40;;;11.50;;
34204;SDS011;20471;49.680;20.074;2023-03-31T05:13:56;12.60;;;10.50;;
34204;SDS011;20471;49.680;20.074;2023-03-31T05:16:24;11.50;;;8.70;;
34204;SDS011;20471;49.680;20.074;2023-03-31T05:18:53;11.00;;;8.30;;
34204;SDS011;20471;49.680;20.074;2023-03-31T05:21:21;12.00;;;7.60;;
34204;SDS011;20471;49.680;20.074;2023-03-31T05:23:50;12.90;;;7.70;;
34204;SDS011;20471;49.680;20.074;2023-03-31T05:26:18;9.90;;;7.30;;
34204;SDS011;20471;49.680;20.074;2023-03-31T05:28:48;9.40;;;6.50;;
34204;SDS011;20471;49.680;20.074;2023-03-31T05:31:16;11.70;;;6.60;;
34204;SDS011;20471;49.680;20.074;2023-03-31T05:33:46;8.50;;;6.50;;
34204;SDS011;20471;49.680;20.074;2023-03-31T05:36:15;9.60;;;6.80;;
34204;SDS011;20471;49.680;20.074;2023-03-31T05:38:44;9.20;;;7.30;;
34204;SDS011;20471;49.680;20.074;2023-03-31T05:41:13;9.50;;;7.20;;
34204;SDS011;20471;49.680;20.074;2023-03-31T05:43:42;9.40;;;6.50;;
34204;SDS011;20471;49.680;20.074;2023-03-31T05:46:10;13.40;;;7.10;;
34204;SDS011;20471;49.680;20.074;2023-03-31T05:48:38;13.90;;;6.50;;
34204;SDS011;20471;49.680;20.074;2023-03-31T05:51:06;9.10;;;6.10;;
34204;SDS011;20471;49.680;20.074;2023-03-31T05:53:34;9.10;;;6.30;;
34204;SDS011;20471;49.680;20.074;2023-03-31T05:56:03;9.50;;;6.40;;
34204;SDS011;20471;49.680;20.074;2023-03-31T05:58:33;8.60;;;6.20;;
34204;SDS011;20471;49.680;20.074;2023-03-31T06:01:07;8.60;;;6.30;;
34204;SDS011;20471;49.680;20.074;2023-03-31T06:03:37;11.50;;;6.50;;
34204;SDS011;20471;49.680;20.074;2023-03-31T06:06:07;10.10;;;6.00;;
34204;SDS011;20471;49.680;20.074;2023-03-31T06:08:40;8.70;;;5.50;;
34204;SDS011;20471;49.680;20.074;2023-03-31T06:11:12;9.70;;;6.10;;
34204;SDS011;20471;49.680;20.074;2023-03-31T06:13:46;10.40;;;6.20;;
34204;SDS011;20471;49.680;20.074;2023-03-31T06:16:18;8.70;;;6.00;;
34204;SDS011;20471;49.680;20.074;2023-03-31T06:18:46;8.80;;;5.50;;
34204;SDS011;20471;49.680;20.074;2023-03-31T06:21:16;10.20;;;6.40;;
34204;SDS011;20471;49.680;20.074;2023-03-31T06:23:47;9.10;;;6.30;;
34204;SDS011;20471;49.680;20.074;2023-03-31T06:26:16;8.50;;;6.30;;
34204;SDS011;20471;49.680;20.074;2023-03-31T06:28:45;7.60;;;5.70;;
34204;SDS011;20471;49.680;20.074;2023-03-31T06:31:17;10.20;;;5.80;;
34204;SDS011;20471;49.680;20.074;2023-03-31T06:33:48;8.20;;;5.80;;
34204;SDS011;20471;49.680;20.074;2023-03-31T06:36:18;9.30;;;6.70;;
34204;SDS011;20471;49.680;20.074;2023-03-31T06:38:48;8.30;;;6.30;;
34204;SDS011;20471;49.680;20.074;2023-03-31T06:41:17;9.50;;;6.50;;
34204;SDS011;20471;49.680;20.074;2023-03-31T06:43:47;8.20;;;5.90;;
34204;SDS011;20471;49.680;20.074;2023-03-31T06:46:16;9.40;;;6.00;;
34204;SDS011;20471;49.680;20.074;2023-03-31T06:48:44;10.40;;;6.20;;
34204;SDS011;20471;49.680;20.074;2023-03-31T06:51:12;9.90;;;7.00;;
34204;SDS011;20471;49.680;20.074;2023-03-31T06:53:41;12.60;;;7.60;;
34204;SDS011;20471;49.680;20.074;2023-03-31T06:56:09;11.20;;;7.50;;
34204;SDS011;20471;49.680;20.074;2023-03-31T06:58:37;11.60;;;7.70;;
34204;SDS011;20471;49.680;20.074;2023-03-31T07:01:05;10.30;;;7.40;;
34204;SDS011;20471;49.680;20.074;2023-03-31T07:03:33;11.20;;;7.00;;
34204;SDS011;20471;49.680;20.074;2023-03-31T07:06:02;9.00;;;5.80;;
34204;SDS011;20471;49.680;20.074;2023-03-31T07:08:30;10.30;;;6.20;;
34204;SDS011;20471;49.680;20.074;2023-03-31T07:10:59;7.90;;;6.00;;
34204;SDS011;20471;49.680;20.074;2023-03-31T07:13:28;9.40;;;5.30;;
34204;SDS011;20471;49.680;20.074;2023-03-31T07:15:57;8.70;;;5.60;;
34204;SDS011;20471;49.680;20.074;2023-03-31T07:18:25;9.80;;;5.60;;
34204;SDS011;20471;49.680;20.074;2023-03-31T07:20:57;10.10;;;5.70;;
34204;SDS011;20471;49.680;20.074;2023-03-31T07:23:26;6.70;;;5.10;;
34204;SDS011;20471;49.680;20.074;2023-03-31T07:25:54;8.60;;;5.20;;
34204;SDS011;20471;49.680;20.074;2023-03-31T07:28:27;10.20;;;6.10;;
34204;SDS011;20471;49.680;20.074;2023-03-31T07:30:56;9.10;;;5.50;;
34204;SDS011;20471;49.680;20.074;2023-03-31T07:33:25;6.90;;;6.00;;
34204;SDS011;20471;49.680;20.074;2023-03-31T07:35:53;11.60;;;6.20;;
34204;SDS011;20471;49.680;20.074;2023-03-31T07:38:21;10.20;;;6.00;;
34204;SDS011;20471;49.680;20.074;2023-03-31T07:40:49;7.70;;;5.70;;
34204;SDS011;20471;49.680;20.074;2023-03-31T07:43:17;10.00;;;5.50;;
34204;SDS011;20471;49.680;20.074;2023-03-31T07:45:45;8.00;;;5.40;;
34204;SDS011;20471;49.680;20.074;2023-03-31T07:48:13;8.20;;;5.10;;
34204;SDS011;20471;49.680;20.074;2023-03-31T07:50:42;8.50;;;4.90;;
34204;SDS011;20471;49.680;20.074;2023-03-31T07:53:10;8.90;;;5.10;;
34204;SDS011;20471;49.680;20.074;2023-03-31T07:55:40;7.10;;;3.60;;
34204;SDS011;20471;49.680;20.074;2023-03-31T07:58:08;7.90;;;3.90;;
34204;SDS011;20471;49.680;20.074;2023-03-31T08:00:37;7.70;;;3.90;;
34204;SDS011;20471;49.680;20.074;2023-03-31T08:03:05;7.40;;;3.30;;
34204;SDS011;20471;49.680;20.074;2023-03-31T08:05:33;6.80;;;3.20;;
34204;SDS011;20471;49.680;20.074;2023-03-31T08:08:01;4.30;;;2.70;;
34204;SDS011;20471;49.680;20.074;2023-03-31T08:10:30;5.40;;;3.20;;
34204;SDS011;20471;49.680;20.074;2023-03-31T08:12:58;5.10;;;2.60;;
34204;SDS011;20471;49.680;20.074;2023-03-31T08:15:26;5.40;;;2.70;;
34204;SDS011;20471;49.680;20.074;2023-03-31T08:17:54;5.00;;;3.30;;
34204;SDS011;20471;49.680;20.074;2023-03-31T08:20:22;4.70;;;2.40;;
34204;SDS011;20471;49.680;20.074;2023-03-31T08:22:50;9.40;;;2.80;;
34204;SDS011;20471;49.680;20.074;2023-03-31T08:25:19;5.70;;;2.80;;
34204;SDS011;20471;49.680;20.074;2023-03-31T08:27:49;5.30;;;2.10;;
34204;SDS011;20471;49.680;20.074;2023-03-31T08:30:18;5.20;;;2.80;;
34204;SDS011;20471;49.680;20.074;2023-03-31T08:32:46;6.00;;;2.60;;
34204;SDS011;20471;49.680;20.074;2023-03-31T08:35:14;6.10;;;2.90;;
34204;SDS011;20471;49.680;20.074;2023-03-31T08:37:43;5.20;;;2.40;;
34204;SDS011;20471;49.680;20.074;2023-03-31T08:40:13;4.20;;;2.50;;
34204;SDS011;20471;49.680;20.074;2023-03-31T08:43:06;4.70;;;2.50;;
34204;SDS011;20471;49.680;20.074;2023-03-31T08:45:40;4.90;;;2.60;;
34204;SDS011;20471;49.680;20.074;2023-03-31T08:48:29;3.50;;;2.40;;
34204;SDS011;20471;49.680;20.074;2023-03-31T08:51:08;4.90;;;2.40;;
34204;SDS011;20471;49.680;20.074;2023-03-31T08:53:44;3.60;;;2.00;;
34204;SDS011;20471;49.680;20.074;2023-03-31T08:56:19;5.70;;;2.40;;
34204;SDS011;20471;49.680;20.074;2023-03-31T08:58:49;6.30;;;2.20;;
34204;SDS011;20471;49.680;20.074;2023-03-31T09:01:24;4.50;;;2.50;;
34204;SDS011;20471;49.680;20.074;2023-03-31T09:04:40;4.70;;;2.50;;
34204;SDS011;20471;49.680;20.074;2023-03-31T09:15:49;4.00;;;2.00;;
34204;SDS011;20471;49.680;20.074;2023-03-31T09:20:53;4.80;;;2.40;;
34204;SDS011;20471;49.680;20.074;2023-03-31T09:23:35;5.30;;;2.80;;
34204;SDS011;20471;49.680;20.074;2023-03-31T09:26:12;4.90;;;2.10;;
34204;SDS011;20471;49.680;20.074;2023-03-31T09:28:59;6.20;;;2.30;;
34204;SDS011;20471;49.680;20.074;2023-03-31T09:31:28;3.80;;;2.10;;
34204;SDS011;20471;49.680;20.074;2023-03-31T09:33:59;5.50;;;2.30;;
34204;SDS011;20471;49.680;20.074;2023-03-31T09:36:29;4.20;;;2.80;;
34204;SDS011;20471;49.680;20.074;2023-03-31T09:38:58;4.90;;;2.80;;
34204;SDS011;20471;49.680;20.074;2023-03-31T09:41:26;6.80;;;3.80;;
34204;SDS011;20471;49.680;20.074;2023-03-31T09:43:54;7.70;;;4.10;;
34204;SDS011;20471;49.680;20.074;2023-03-31T09:46:29;4.10;;;2.70;;
34204;SDS011;20471;49.680;20.074;2023-03-31T09:49:03;6.70;;;2.50;;
34204;SDS011;20471;49.680;20.074;2023-03-31T09:51:47;2.90;;;1.70;;
34204;SDS011;20471;49.680;20.074;2023-03-31T09:54:21;4.70;;;1.70;;
34204;SDS011;20471;49.680;20.074;2023-03-31T09:56:55;3.70;;;1.70;;
34204;SDS011;20471;49.680;20.074;2023-03-31T09:59:30;3.90;;;1.80;;
34204;SDS011;20471;49.680;20.074;2023-03-31T10:02:19;3.50;;;1.50;;
34204;SDS011;20471;49.680;20.074;2023-03-31T10:04:55;4.20;;;1.80;;
34204;SDS011;20471;49.680;20.074;2023-03-31T10:07:23;2.80;;;1.80;;
34204;SDS011;20471;49.680;20.074;2023-03-31T10:09:53;3.30;;;1.90;;
34204;SDS011;20471;49.680;20.074;2023-03-31T10:12:24;4.00;;;1.60;;
34204;SDS011;20471;49.680;20.074;2023-03-31T10:15:01;4.00;;;1.80;;
34204;SDS011;20471;49.680;20.074;2023-03-31T10:17:43;5.80;;;2.10;;
34204;SDS011;20471;49.680;20.074;2023-03-31T10:20:31;3.40;;;1.70;;
34204;SDS011;20471;49.680;20.074;2023-03-31T10:23:16;3.00;;;1.80;;
34204;SDS011;20471;49.680;20.074;2023-03-31T10:25:55;5.20;;;1.80;;
34204;SDS011;20471;49.680;20.074;2023-03-31T10:28:24;4.30;;;1.60;;
34204;SDS011;20471;49.680;20.074;2023-03-31T10:30:54;4.60;;;1.60;;
34204;SDS011;20471;49.680;20.074;2023-03-31T10:33:26;2.80;;;1.10;;
34204;SDS011;20471;49.680;20.074;2023-03-31T10:36:07;3.60;;;1.70;;
34204;SDS011;20471;49.680;20.074;2023-03-31T10:38:43;4.30;;;1.70;;
34204;SDS011;20471;49.680;20.074;2023-03-31T10:41:16;3.40;;;1.80;;
34204;SDS011;20471;49.680;20.074;2023-03-31T10:43:51;3.70;;;1.80;;
34204;SDS011;20471;49.680;20.074;2023-03-31T10:46:38;3.70;;;1.70;;
34204;SDS011;20471;49.680;20.074;2023-03-31T10:49:19;3.20;;;1.50;;
34204;SDS011;20471;49.680;20.074;2023-03-31T10:51:56;4.70;;;1.60;;
34204;SDS011;20471;49.680;20.074;2023-03-31T10:54:26;7.20;;;1.90;;
34204;SDS011;20471;49.680;20.074;2023-03-31T10:56:55;3.00;;;1.80;;
34204;SDS011;20471;49.680;20.074;2023-03-31T10:59:39;3.70;;;1.60;;
34204;SDS011;20471;49.680;20.074;2023-03-31T11:05:18;3.40;;;1.80;;
34204;SDS011;20471;49.680;20.074;2023-03-31T11:19:10;4.40;;;1.70;;
34204;SDS011;20471;49.680;20.074;2023-03-31T11:24:35;3.60;;;1.70;;
34204;SDS011;20471;49.680;20.074;2023-03-31T11:38:31;5.50;;;2.10;;
34204;SDS011;20471;49.680;20.074;2023-03-31T11:43:47;3.30;;;1.70;;
34204;SDS011;20471;49.680;20.074;2023-03-31T11:49:05;4.20;;;1.60;;
34204;SDS011;20471;49.680;20.074;2023-03-31T11:54:28;4.70;;;1.60;;
34204;SDS011;20471;49.680;20.074;2023-03-31T11:56:59;4.60;;;1.70;;
34204;SDS011;20471;49.680;20.074;2023-03-31T11:59:32;4.80;;;1.90;;
34204;SDS011;20471;49.680;20.074;2023-03-31T12:04:52;3.90;;;1.60;;
34204;SDS011;20471;49.680;20.074;2023-03-31T12:07:28;3.90;;;2.00;;
34204;SDS011;20471;49.680;20.074;2023-03-31T12:10:22;4.60;;;1.40;;
34204;SDS011;20471;49.680;20.074;2023-03-31T12:12:58;4.20;;;1.70;;
34204;SDS011;20471;49.680;20.074;2023-03-31T12:15:37;6.20;;;2.00;;
34204;SDS011;20471;49.680;20.074;2023-03-31T12:18:10;3.50;;;1.60;;
34204;SDS011;20471;49.680;20.074;2023-03-31T12:21:05;3.10;;;1.30;;
34204;SDS011;20471;49.680;20.074;2023-03-31T12:23:38;4.90;;;1.90;;
34204;SDS011;20471;49.680;20.074;2023-03-31T12:29:06;3.00;;;1.50;;
34204;SDS011;20471;49.680;20.074;2023-03-31T12:31:48;3.10;;;1.60;;
34204;SDS011;20471;49.680;20.074;2023-03-31T12:34:21;5.30;;;1.60;;
34204;SDS011;20471;49.680;20.074;2023-03-31T12:36:58;3.50;;;1.40;;
34204;SDS011;20471;49.680;20.074;2023-03-31T12:42:44;4.70;;;1.50;;
34204;SDS011;20471;49.680;20.074;2023-03-31T12:53:43;2.80;;;1.50;;
34204;SDS011;20471;49.680;20.074;2023-03-31T12:56:18;6.20;;;1.70;;
34204;SDS011;20471;49.680;20.074;2023-03-31T12:58:46;5.40;;;1.70;;
34204;SDS011;20471;49.680;20.074;2023-03-31T13:01:24;4.80;;;1.80;;
34204;SDS011;20471;49.680;20.074;2023-03-31T13:09:04;3.90;;;1.40;;
34204;SDS011;20471;49.680;20.074;2023-03-31T13:11:37;4.30;;;1.50;;
34204;SDS011;20471;49.680;20.074;2023-03-31T13:14:16;4.50;;;2.10;;
34204;SDS011;20471;49.680;20.074;2023-03-31T13:16:48;5.20;;;1.60;;
34204;SDS011;20471;49.680;20.074;2023-03-31T13:22:03;3.80;;;1.80;;
34204;SDS011;20471;49.680;20.074;2023-03-31T13:24:32;4.20;;;2.10;;
34204;SDS011;20471;49.680;20.074;2023-03-31T13:29:56;4.30;;;1.90;;
34204;SDS011;20471;49.680;20.074;2023-03-31T13:32:25;7.90;;;4.60;;
34204;SDS011;20471;49.680;20.074;2023-03-31T13:34:58;4.70;;;2.00;;
34204;SDS011;20471;49.680;20.074;2023-03-31T13:57:39;6.50;;;2.20;;
34204;SDS011;20471;49.680;20.074;2023-03-31T14:03:19;3.70;;;1.80;;
34204;SDS011;20471;49.680;20.074;2023-03-31T14:06:17;4.40;;;2.20;;
34204;SDS011;20471;49.680;20.074;2023-03-31T14:08:54;5.10;;;2.10;;
34204;SDS011;20471;49.680;20.074;2023-03-31T14:11:28;2.70;;;1.50;;
34204;SDS011;20471;49.680;20.074;2023-03-31T14:13:58;3.60;;;1.50;;
34204;SDS011;20471;49.680;20.074;2023-03-31T14:16:42;3.50;;;1.40;;
34204;SDS011;20471;49.680;20.074;2023-03-31T14:21:45;5.10;;;1.50;;
34204;SDS011;20471;49.680;20.074;2023-03-31T14:24:39;5.00;;;1.70;;
34204;SDS011;20471;49.680;20.074;2023-03-31T14:27:35;4.50;;;2.00;;
34204;SDS011;20471;49.680;20.074;2023-03-31T14:35:35;14.30;;;5.50;;
34204;SDS011;20471;49.680;20.074;2023-03-31T14:38:10;18.50;;;9.40;;
34204;SDS011;20471;49.680;20.074;2023-03-31T14:40:47;6.60;;;3.00;;
34204;SDS011;20471;49.680;20.074;2023-03-31T14:43:20;9.80;;;5.20;;
34204;SDS011;20471;49.680;20.074;2023-03-31T14:45:57;6.20;;;3.40;;
34204;SDS011;20471;49.680;20.074;2023-03-31T14:48:27;4.90;;;1.80;;
34204;SDS011;20471;49.680;20.074;2023-03-31T14:50:57;19.90;;;9.90;;
34204;SDS011;20471;49.680;20.074;2023-03-31T14:53:28;8.10;;;2.60;;
34204;SDS011;20471;49.680;20.074;2023-03-31T14:56:02;5.60;;;2.70;;
34204;SDS011;20471;49.680;20.074;2023-03-31T14:58:38;11.50;;;5.50;;
34204;SDS011;20471;49.680;20.074;2023-03-31T15:01:11;5.20;;;3.50;;
34204;SDS011;20471;49.680;20.074;2023-03-31T15:03:44;9.80;;;5.10;;
34204;SDS011;20471;49.680;20.074;2023-03-31T15:06:13;4.30;;;2.20;;
34204;SDS011;20471;49.680;20.074;2023-03-31T15:08:42;3.40;;;1.90;;
34204;SDS011;20471;49.680;20.074;2023-03-31T15:11:13;6.00;;;2.70;;
34204;SDS011;20471;49.680;20.074;2023-03-31T15:13:46;7.10;;;3.80;;
34204;SDS011;20471;49.680;20.074;2023-03-31T15:16:30;10.10;;;3.20;;
34204;SDS011;20471;49.680;20.074;2023-03-31T15:18:59;5.90;;;3.20;;
34204;SDS011;20471;49.680;20.074;2023-03-31T15:21:29;7.20;;;2.70;;
34204;SDS011;20471;49.680;20.074;2023-03-31T15:24:02;9.90;;;3.80;;
34204;SDS011;20471;49.680;20.074;2023-03-31T15:26:31;10.00;;;4.60;;
34204;SDS011;20471;49.680;20.074;2023-03-31T15:29:06;9.90;;;3.70;;
34204;SDS011;20471;49.680;20.074;2023-03-31T15:31:46;8.50;;;3.00;;
34204;SDS011;20471;49.680;20.074;2023-03-31T15:34:23;9.80;;;3.40;;
34204;SDS011;20471;49.680;20.074;2023-03-31T15:36:54;9.40;;;4.80;;
34204;SDS011;20471;49.680;20.074;2023-03-31T15:39:24;8.30;;;4.00;;
34204;SDS011;20471;49.680;20.074;2023-03-31T15:41:55;14.30;;;4.20;;
34204;SDS011;20471;49.680;20.074;2023-03-31T15:44:44;7.00;;;3.70;;
34204;SDS011;20471;49.680;20.074;2023-03-31T15:47:17;8.10;;;3.90;;
34204;SDS011;20471;49.680;20.074;2023-03-31T15:49:57;8.90;;;3.70;;
34204;SDS011;20471;49.680;20.074;2023-03-31T15:52:44;8.20;;;4.10;;
34204;SDS011;20471;49.680;20.074;2023-03-31T15:55:28;10.00;;;5.80;;
34204;SDS011;20471;49.680;20.074;2023-03-31T16:03:02;12.20;;;5.60;;
34204;SDS011;20471;49.680;20.074;2023-03-31T16:05:40;10.60;;;5.90;;
34204;SDS011;20471;49.680;20.074;2023-03-31T16:08:36;15.60;;;7.10;;
34204;SDS011;20471;49.680;20.074;2023-03-31T16:11:14;18.00;;;8.80;;
34204;SDS011;20471;49.680;20.074;2023-03-31T16:13:48;17.40;;;8.20;;
34204;SDS011;20471;49.680;20.074;2023-03-31T16:16:22;17.80;;;9.10;;
34204;SDS011;20471;49.680;20.074;2023-03-31T16:19:02;16.70;;;9.10;;
34204;SDS011;20471;49.680;20.074;2023-03-31T16:21:53;20.70;;;9.20;;
34204;SDS011;20471;49.680;20.074;2023-03-31T16:24:28;22.50;;;9.90;;
34204;SDS011;20471;49.680;20.074;2023-03-31T16:27:03;17.90;;;9.90;;
34204;SDS011;20471;49.680;20.074;2023-03-31T16:29:35;16.30;;;8.50;;
34204;SDS011;20471;49.680;20.074;2023-03-31T16:32:14;16.50;;;7.00;;
34204;SDS011;20471;49.680;20.074;2023-03-31T16:34:55;13.40;;;7.00;;
34204;SDS011;20471;49.680;20.074;2023-03-31T16:37:26;14.00;;;7.00;;
34204;SDS011;20471;49.680;20.074;2023-03-31T16:39:55;16.90;;;9.70;;
34204;SDS011;20471;49.680;20.074;2023-03-31T16:42:24;14.70;;;8.40;;
34204;SDS011;20471;49.680;20.074;2023-03-31T16:44:53;13.00;;;8.00;;
34204;SDS011;20471;49.680;20.074;2023-03-31T16:47:22;16.30;;;8.50;;
34204;SDS011;20471;49.680;20.074;2023-03-31T16:49:50;11.10;;;7.20;;
34204;SDS011;20471;49.680;20.074;2023-03-31T16:52:19;14.20;;;7.30;;
34204;SDS011;20471;49.680;20.074;2023-03-31T16:54:47;11.90;;;7.20;;
34204;SDS011;20471;49.680;20.074;2023-03-31T16:57:15;13.90;;;7.80;;
34204;SDS011;20471;49.680;20.074;2023-03-31T16:59:44;15.00;;;7.70;;
34204;SDS011;20471;49.680;20.074;2023-03-31T17:02:12;14.30;;;7.00;;
34204;SDS011;20471;49.680;20.074;2023-03-31T17:04:42;9.70;;;6.00;;
34204;SDS011;20471;49.680;20.074;2023-03-31T17:07:10;12.30;;;5.30;;
34204;SDS011;20471;49.680;20.074;2023-03-31T17:09:38;12.50;;;7.60;;
34204;SDS011;20471;49.680;20.074;2023-03-31T17:12:07;15.60;;;9.10;;
34204;SDS011;20471;49.680;20.074;2023-03-31T17:14:35;10.10;;;5.40;;
34204;SDS011;20471;49.680;20.074;2023-03-31T17:17:05;8.80;;;4.90;;
34204;SDS011;20471;49.680;20.074;2023-03-31T17:19:34;13.30;;;7.50;;
34204;SDS011;20471;49.680;20.074;2023-03-31T17:22:02;10.00;;;6.10;;
34204;SDS011;20471;49.680;20.074;2023-03-31T17:24:31;12.50;;;6.80;;
34204;SDS011;20471;49.680;20.074;2023-03-31T17:27:00;11.20;;;5.20;;
34204;SDS011;20471;49.680;20.074;2023-03-31T17:29:28;9.30;;;5.10;;
34204;SDS011;20471;49.680;20.074;2023-03-31T17:31:58;12.00;;;6.40;;
34204;SDS011;20471;49.680;20.074;2023-03-31T17:34:26;6.90;;;4.20;;
34204;SDS011;20471;49.680;20.074;2023-03-31T17:36:55;8.80;;;4.30;;
34204;SDS011;20471;49.680;20.074;2023-03-31T17:39:23;10.10;;;5.60;;
34204;SDS011;20471;49.680;20.074;2023-03-31T17:41:53;8.10;;;5.10;;
34204;SDS011;20471;49.680;20.074;2023-03-31T17:44:24;8.60;;;5.00;;
34204;SDS011;20471;49.680;20.074;2023-03-31T17:46:52;7.30;;;4.30;;